Time,TemperatureF,DewpointF,PressureIn,WindDirection,WindDirectionDegrees,WindSpeedMPH,WindSpeedGustMPH,Humidity,HourlyPrecipIn,Conditions,Clouds,dailyrainin,SoftwareType,DateUTC
2013-05-01 00:11:00,68.5,56.0,29.91,SE,144,2.0,7.0,65,0.00,,,0.00,weatherlink.com 1.10,2013-05-01 05:11:00,
2013-05-01 00:26:00,68.8,56.0,29.91,SE,138,0.0,4.0,63,0.00,,,0.00,weatherlink.com 1.10,2013-05-01 05:26:00,
2013-05-01 00:41:00,68.4,56.0,29.92,SE,137,0.0,4.0,64,0.00,,,0.00,weatherlink.com 1.10,2013-05-01 05:41:00,
2013-05-01 00:56:00,67.8,56.0,29.92,SE,137,0.0,0.0,66,0.00,,,0.00,weatherlink.com 1.10,2013-05-01 05:56:00,
2013-05-01 01:11:00,66.1,56.0,29.92,SE,137,0.0,0.0,69,0.00,,,0.00,weatherlink.com 1.10,2013-05-01 06:11:00,
2013-05-01 01:26:00,65.0,56.0,29.92,SE,137,0.0,1.0,72,0.00,,,0.00,weatherlink.com 1.10,2013-05-01 06:26:00,
2013-05-01 01:41:00,65.0,55.0,29.92,SE,137,0.0,3.0,71,0.00,,,0.00,weatherlink.com 1.10,2013-05-01 06:41:00,
2013-05-01 01:56:00,66.3,55.0,29.92,SSE,149,1.0,7.0,68,0.00,,,0.00,weatherlink.com 1.10,2013-05-01 06:56:00,
2013-05-01 02:11:00,66.6,56.0,29.92,SE,136,1.0,6.0,68,0.00,,,0.00,weatherlink.com 1.10,2013-05-01 07:11:00,
2013-05-01 02:26:00,66.2,56.0,29.92,SSE,147,0.0,5.0,69,0.00,,,0.00,weatherlink.com 1.10,2013-05-01 07:26:00,
2013-05-01 02:41:00,65.9,55.0,29.93,SSE,155,0.0,5.0,69,0.00,,,0.00,weatherlink.com 1.10,2013-05-01 07:41:00,
2013-05-01 02:56:00,65.4,55.0,29.93,SSE,147,0.0,4.0,70,0.00,,,0.00,weatherlink.com 1.10,2013-05-01 07:56:00,
2013-05-01 03:11:00,64.1,55.0,29.93,SSE,147,0.0,0.0,73,0.00,,,0.00,weatherlink.com 1.10,2013-05-01 08:11:00,
2013-05-01 03:26:00,62.1,55.0,29.94,SSE,147,0.0,0.0,77,0.00,,,0.00,weatherlink.com 1.10,2013-05-01 08:26:00,
2013-05-01 03:41:00,60.8,55.0,29.94,SSE,147,0.0,0.0,81,0.00,,,0.00,weatherlink.com 1.10,2013-05-01 08:41:00,
2013-05-01 03:56:00,59.9,54.0,29.94,SSE,147,0.0,0.0,82,0.00,,,0.00,weatherlink.com 1.10,2013-05-01 08:56:00,
2013-05-01 04:11:00,59.2,54.0,29.94,SSE,147,0.0,0.0,84,0.00,,,0.00,weatherlink.com 1.10,2013-05-01 09:11:00,
2013-05-01 04:26:00,58.6,55.0,29.94,SSE,147,0.0,0.0,86,0.00,,,0.00,weatherlink.com 1.10,2013-05-01 09:26:00,
2013-05-01 04:41:00,58.1,54.0,29.95,SSE,147,0.0,0.0,87,0.00,,,0.00,weatherlink.com 1.10,2013-05-01 09:41:00,
2013-05-01 04:56:00,57.6,54.0,29.95,SSE,147,0.0,0.0,88,0.00,,,0.00,weatherlink.com 1.10,2013-05-01 09:56:00,
2013-05-01 05:11:00,57.2,54.0,29.96,SSE,147,0.0,0.0,89,0.00,,,0.00,weatherlink.com 1.10,2013-05-01 10:11:00,
2013-05-01 05:26:00,56.7,54.0,29.96,SSE,147,0.0,0.0,90,0.00,,,0.00,weatherlink.com 1.10,2013-05-01 10:26:00,
2013-05-01 05:41:00,56.4,54.0,29.97,SE,146,0.0,0.0,90,0.00,,,0.00,weatherlink.com 1.10,2013-05-01 10:41:00,
2013-05-01 05:56:00,56.3,54.0,29.97,SE,146,0.0,1.0,91,0.00,,,0.00,weatherlink.com 1.10,2013-05-01 10:56:00,
2013-05-01 06:12:00,56.0,54.0,29.98,SE,146,0.0,1.0,91,0.00,,,0.00,weatherlink.com 1.10,2013-05-01 11:12:00,
2013-05-01 06:27:00,56.0,54.0,29.99,SE,146,0.0,0.0,92,0.00,,,0.00,weatherlink.com 1.10,2013-05-01 11:27:00,
2013-05-01 06:42:00,56.6,54.0,29.99,SE,146,0.0,0.0,90,0.00,,,0.00,weatherlink.com 1.10,2013-05-01 11:42:00,
2013-05-01 06:57:00,58.2,55.0,29.99,SE,146,0.0,0.0,89,0.00,,,0.00,weatherlink.com 1.10,2013-05-01 11:57:00,
2013-05-01 07:12:00,60.3,56.0,30.00,SE,146,0.0,0.0,84,0.00,,,0.00,weatherlink.com 1.10,2013-05-01 12:12:00,
2013-05-01 07:27:00,61.8,56.0,30.01,SE,146,0.0,2.0,82,0.00,,,0.00,weatherlink.com 1.10,2013-05-01 12:27:00,
2013-05-01 07:42:00,63.3,56.0,30.01,SE,141,0.0,2.0,78,0.00,,,0.00,weatherlink.com 1.10,2013-05-01 12:42:00,
2013-05-01 07:57:00,64.4,57.0,30.01,ESE,118,0.0,3.0,78,0.00,,,0.00,weatherlink.com 1.10,2013-05-01 12:57:00,
2013-05-01 08:12:00,65.8,58.0,30.01,ESE,116,2.0,4.0,75,0.00,,,0.00,weatherlink.com 1.10,2013-05-01 13:12:00,
2013-05-01 08:27:00,67.2,57.0,30.01,ESE,106,2.0,3.0,71,0.00,,,0.00,weatherlink.com 1.10,2013-05-01 13:27:00,
2013-05-01 08:42:00,68.5,58.0,30.01,ESE,123,1.0,5.0,70,0.00,,,0.00,weatherlink.com 1.10,2013-05-01 13:42:00,
2013-05-01 08:57:00,70.2,59.0,30.01,SE,129,3.0,5.0,67,0.00,,,0.00,weatherlink.com 1.10,2013-05-01 13:57:00,
2013-05-01 09:12:00,71.7,60.0,30.01,SSE,150,4.0,7.0,66,0.00,,,0.00,weatherlink.com 1.10,2013-05-01 14:12:00,
2013-05-01 09:27:00,73.3,60.0,30.01,ESE,109,3.0,5.0,63,0.00,,,0.00,weatherlink.com 1.10,2013-05-01 14:27:00,
2013-05-01 09:42:00,74.7,59.0,30.01,SE,134,4.0,8.0,59,0.00,,,0.00,weatherlink.com 1.10,2013-05-01 14:42:00,
2013-05-01 09:57:00,75.2,60.0,30.01,SE,136,4.0,6.0,59,0.00,,,0.00,weatherlink.com 1.10,2013-05-01 14:57:00,
2013-05-01 10:12:00,76.6,60.0,30.01,SSE,159,2.0,9.0,56,0.00,,,0.00,weatherlink.com 1.10,2013-05-01 15:12:00,
2013-05-01 10:27:00,77.0,60.0,30.01,East,93,5.0,7.0,57,0.00,,,0.00,weatherlink.com 1.10,2013-05-01 15:27:00,
2013-05-01 10:42:00,77.9,61.0,30.01,ESE,108,2.0,7.0,56,0.00,,,0.00,weatherlink.com 1.10,2013-05-01 15:42:00,
2013-05-01 10:57:00,78.7,61.0,30.01,ESE,106,4.0,8.0,55,0.00,,,0.00,weatherlink.com 1.10,2013-05-01 15:57:00,
2013-05-01 11:12:00,79.3,63.0,30.02,West,274,2.0,5.0,57,0.00,,,0.00,weatherlink.com 1.10,2013-05-01 16:12:00,
2013-05-01 11:27:00,80.3,63.0,30.02,ESE,122,7.0,8.0,55,0.00,,,0.00,weatherlink.com 1.10,2013-05-01 16:27:00,
2013-05-01 11:42:00,80.5,63.0,30.02,SE,126,12.0,13.0,56,0.00,,,0.00,weatherlink.com 1.10,2013-05-01 16:42:00,
2013-05-01 11:57:00,79.3,63.0,30.02,South,183,3.0,9.0,57,0.00,,,0.00,weatherlink.com 1.10,2013-05-01 16:57:00,
2013-05-01 12:12:00,79.0,64.0,30.02,SW,216,2.0,10.0,60,0.00,,,0.00,weatherlink.com 1.10,2013-05-01 17:12:00,
2013-05-01 12:27:00,78.9,63.0,30.02,South,189,2.0,10.0,59,0.00,,,0.00,weatherlink.com 1.10,2013-05-01 17:27:00,
2013-05-01 12:42:00,79.2,64.0,30.02,SSW,200,3.0,11.0,60,0.00,,,0.00,weatherlink.com 1.10,2013-05-01 17:42:00,
2013-05-01 12:57:00,79.5,64.0,30.02,SW,228,6.0,7.0,60,0.00,,,0.00,weatherlink.com 1.10,2013-05-01 17:57:00,
2013-05-01 13:12:00,80.2,63.0,30.02,South,183,5.0,14.0,56,0.00,,,0.00,weatherlink.com 1.10,2013-05-01 18:12:00,
2013-05-01 13:27:00,80.5,63.0,30.02,SSE,154,8.0,10.0,56,0.00,,,0.00,weatherlink.com 1.10,2013-05-01 18:27:00,
2013-05-01 13:42:00,80.7,63.0,30.02,South,184,8.0,12.0,55,0.00,,,0.00,weatherlink.com 1.10,2013-05-01 18:42:00,
2013-05-01 13:57:00,81.3,62.0,30.02,SSE,149,4.0,10.0,53,0.00,,,0.00,weatherlink.com 1.10,2013-05-01 18:57:00,
2013-05-01 14:12:00,81.2,62.0,30.02,ESE,114,7.0,12.0,52,0.00,,,0.00,weatherlink.com 1.10,2013-05-01 19:12:00,
2013-05-01 14:27:00,81.4,61.0,30.02,SSE,158,5.0,10.0,50,0.00,,,0.00,weatherlink.com 1.10,2013-05-01 19:27:00,
2013-05-01 14:42:00,81.4,61.0,30.01,ESE,121,9.0,11.0,50,0.00,,,0.00,weatherlink.com 1.10,2013-05-01 19:42:00,
2013-05-01 14:58:00,82.2,59.0,30.01,SSE,147,8.0,12.0,45,0.00,,,0.00,weatherlink.com 1.10,2013-05-01 19:58:00,
2013-05-01 15:13:00,82.0,60.0,30.01,SSE,147,10.0,11.0,48,0.00,,,0.00,weatherlink.com 1.10,2013-05-01 20:13:00,
2013-05-01 15:28:00,82.2,59.0,30.01,SSE,163,4.0,11.0,45,0.00,,,0.00,weatherlink.com 1.10,2013-05-01 20:28:00,
2013-05-01 15:43:00,81.8,60.0,30.00,SE,125,5.0,8.0,47,0.00,,,0.00,weatherlink.com 1.10,2013-05-01 20:43:00,
2013-05-01 15:58:00,82.0,60.0,30.00,SE,124,7.0,9.0,47,0.00,,,0.00,weatherlink.com 1.10,2013-05-01 20:58:00,
2013-05-01 16:13:00,82.4,59.0,30.00,SSE,150,6.0,9.0,45,0.00,,,0.00,weatherlink.com 1.10,2013-05-01 21:13:00,
2013-05-01 16:28:00,82.0,60.0,30.00,SE,131,3.0,13.0,47,0.00,,,0.00,weatherlink.com 1.10,2013-05-01 21:28:00,
2013-05-01 16:43:00,81.7,61.0,30.00,South,182,6.0,9.0,50,0.00,,,0.00,weatherlink.com 1.10,2013-05-01 21:43:00,
2013-05-01 16:58:00,80.5,61.0,30.00,SSW,198,5.0,8.0,52,0.00,,,0.00,weatherlink.com 1.10,2013-05-01 21:58:00,
2013-05-01 17:13:00,80.0,62.0,30.00,SW,220,1.0,7.0,54,0.00,,,0.00,weatherlink.com 1.10,2013-05-01 22:13:00,
2013-05-01 17:28:00,80.2,61.0,30.00,South,174,3.0,5.0,53,0.00,,,0.00,weatherlink.com 1.10,2013-05-01 22:28:00,
2013-05-01 17:43:00,80.3,62.0,30.00,SE,145,12.0,12.0,53,0.00,,,0.00,weatherlink.com 1.10,2013-05-01 22:43:00,
2013-05-01 17:58:00,79.7,59.0,30.00,SE,126,7.0,9.0,50,0.00,,,0.00,weatherlink.com 1.10,2013-05-01 22:58:00,
2013-05-01 18:13:00,79.0,60.0,30.00,SSE,164,3.0,8.0,52,0.00,,,0.00,weatherlink.com 1.10,2013-05-01 23:13:00,
2013-05-01 18:28:00,78.5,60.0,30.00,SE,134,0.0,6.0,54,0.00,,,0.00,weatherlink.com 1.10,2013-05-01 23:28:00,
2013-05-01 18:43:00,78.3,61.0,30.00,SE,141,5.0,6.0,55,0.00,,,0.00,weatherlink.com 1.10,2013-05-01 23:43:00,
2013-05-01 18:58:00,78.0,61.0,30.00,SSW,195,0.0,4.0,57,0.00,,,0.00,weatherlink.com 1.10,2013-05-01 23:58:00,
2013-05-01 19:13:00,77.6,62.0,30.00,ESE,117,0.0,2.0,58,0.00,,,0.00,weatherlink.com 1.10,2013-05-02 00:13:00,
2013-05-01 19:28:00,77.1,62.0,30.01,ESE,117,0.0,0.0,60,0.00,,,0.00,weatherlink.com 1.10,2013-05-02 00:28:00,
2013-05-01 19:43:00,76.2,63.0,30.01,ESE,117,0.0,0.0,63,0.00,,,0.00,weatherlink.com 1.10,2013-05-02 00:43:00,
2013-05-01 19:58:00,75.5,62.0,30.01,ESE,117,0.0,1.0,63,0.00,,,0.00,weatherlink.com 1.10,2013-05-02 00:58:00,
2013-05-01 20:13:00,73.9,63.0,30.01,ESE,117,0.0,0.0,68,0.00,,,0.00,weatherlink.com 1.10,2013-05-02 01:13:00,
2013-05-01 20:28:00,72.8,62.0,30.02,ESE,117,0.0,0.0,70,0.00,,,0.00,weatherlink.com 1.10,2013-05-02 01:28:00,
2013-05-01 20:43:00,72.1,63.0,30.02,ESE,117,0.0,1.0,72,0.00,,,0.00,weatherlink.com 1.10,2013-05-02 01:43:00,
2013-05-01 20:58:00,71.3,62.0,30.02,ESE,117,0.0,0.0,73,0.00,,,0.00,weatherlink.com 1.10,2013-05-02 01:58:00,
2013-05-01 21:13:00,70.7,62.0,30.03,ESE,117,0.0,0.0,75,0.00,,,0.00,weatherlink.com 1.10,2013-05-02 02:13:00,
2013-05-01 21:28:00,70.2,62.0,30.03,ESE,117,0.0,0.0,76,0.00,,,0.00,weatherlink.com 1.10,2013-05-02 02:28:00,
2013-05-01 21:43:00,69.5,62.0,30.03,ESE,117,0.0,0.0,78,0.00,,,0.00,weatherlink.com 1.10,2013-05-02 02:43:00,
2013-05-01 21:58:00,68.8,62.0,30.03,ESE,117,0.0,0.0,80,0.00,,,0.00,weatherlink.com 1.10,2013-05-02 02:58:00,
2013-05-01 22:13:00,68.2,62.0,30.03,ESE,117,0.0,0.0,81,0.00,,,0.00,weatherlink.com 1.10,2013-05-02 03:13:00,
2013-05-01 22:28:00,67.5,62.0,30.03,ESE,117,0.0,0.0,83,0.00,,,0.00,weatherlink.com 1.10,2013-05-02 03:28:00,
2013-05-01 22:43:00,67.1,62.0,30.02,ESE,117,0.0,0.0,83,0.00,,,0.00,weatherlink.com 1.10,2013-05-02 03:43:00,
2013-05-01 22:58:00,66.5,62.0,30.02,ESE,117,0.0,0.0,85,0.00,,,0.00,weatherlink.com 1.10,2013-05-02 03:58:00,
2013-05-01 23:13:00,65.9,62.0,30.02,ESE,117,0.0,0.0,86,0.00,,,0.00,weatherlink.com 1.10,2013-05-02 04:13:00,
2013-05-01 23:28:00,65.5,62.0,30.02,ESE,117,0.0,0.0,87,0.00,,,0.00,weatherlink.com 1.10,2013-05-02 04:28:00,
2013-05-01 23:43:00,65.0,61.0,30.02,ESE,117,0.0,0.0,88,0.00,,,0.00,weatherlink.com 1.10,2013-05-02 04:43:00,
2013-05-01 23:58:00,64.7,62.0,30.02,ESE,117,0.0,0.0,89,0.00,,,0.00,weatherlink.com 1.10,2013-05-02 04:58:00,